createdAt,value
2023-01-17T00:00:35.025Z,77.92
2023-01-17T00:03:23.153Z,77.79
2023-01-17T00:06:11.242Z,77.72
2023-01-17T00:08:58.197Z,77.88
2023-01-17T00:11:27.820Z,77.86
2023-01-17T00:13:57.178Z,78.15
2023-01-17T00:16:26.233Z,77.54
2023-01-17T00:19:15.161Z,77.73
2023-01-17T00:22:03.147Z,77.81
2023-01-17T00:24:51.095Z,77.91
2023-01-17T00:27:19.065Z,77.73
2023-01-17T00:29:47.180Z,78.23
2023-01-17T00:32:15.195Z,78.21
2023-01-17T00:34:43.371Z,77.97
2023-01-17T00:37:12.727Z,77.88
2023-01-17T00:39:40.893Z,77.92
2023-01-17T00:42:08.846Z,77.97
2023-01-17T00:44:55.611Z,78.05
2023-01-17T00:47:42.028Z,78.02
2023-01-17T00:50:29.568Z,78.02
2023-01-17T00:53:21.388Z,78.04
2023-01-17T00:56:08.279Z,77.88
2023-01-17T00:58:55.134Z,78.11
2023-01-17T01:01:42.180Z,78.30
2023-01-17T01:04:29.056Z,78.21
2023-01-17T01:07:16.161Z,78.26
2023-01-17T01:10:05.008Z,78.40
2023-01-17T01:12:52.064Z,78.30
2023-01-17T01:15:38.528Z,78.88
2023-01-17T01:18:26.620Z,78.67
2023-01-17T01:21:13.266Z,78.38
2023-01-17T01:24:00.118Z,78.70
2023-01-17T01:26:47.986Z,78.78
2023-01-17T01:29:34.889Z,78.57
2023-01-17T01:32:22.011Z,78.43
2023-01-17T01:34:51.393Z,78.33
2023-01-17T01:37:20.605Z,78.21
2023-01-17T01:39:50.032Z,78.37
2023-01-17T01:42:20.773Z,78.26
2023-01-17T01:44:53.141Z,78.27
2023-01-17T01:47:28.252Z,78.39
2023-01-17T01:49:59.746Z,78.74
2023-01-17T01:52:31.420Z,78.66
2023-01-17T01:55:04.443Z,78.63
2023-01-17T01:57:41.141Z,78.24
2023-01-17T02:00:17.004Z,78.71
2023-01-17T02:02:49.850Z,78.75
2023-01-17T02:05:22.195Z,78.65
2023-01-17T02:07:56.285Z,78.46
2023-01-17T02:10:25.818Z,78.60
2023-01-17T02:12:57.260Z,78.48
2023-01-17T02:15:33.942Z,78.93
2023-01-17T02:18:14.279Z,79.35
2023-01-17T02:21:03.926Z,78.91
2023-01-17T02:24:15.702Z,79.25
2023-01-17T02:27:02.678Z,78.89
2023-01-17T02:30:04.143Z,79.13
2023-01-17T02:32:46.599Z,79.12
2023-01-17T02:35:25.564Z,78.71
2023-01-17T02:38:01.629Z,78.76
2023-01-17T02:40:36.885Z,78.98
2023-01-17T02:43:11.229Z,78.69
2023-01-17T02:45:40.440Z,79.13
2023-01-17T02:48:14.592Z,79.17
2023-01-17T02:50:58.884Z,79.38
2023-01-17T02:53:43.033Z,79.67
2023-01-17T02:56:21.203Z,79.51
2023-01-17T02:59:07.353Z,79.24
2023-01-17T03:01:46.484Z,79.71
2023-01-17T03:04:22.890Z,79.66
2023-01-17T03:06:56.710Z,79.59
2023-01-17T03:09:29.022Z,80.08
2023-01-17T03:12:00.510Z,80.24
2023-01-17T03:14:32.544Z,79.65
2023-01-17T03:17:01.825Z,79.70
2023-01-17T03:19:32.603Z,80.23
2023-01-17T03:22:02.565Z,79.95
2023-01-17T03:24:31.935Z,80.29
2023-01-17T03:27:01.121Z,79.88
2023-01-17T03:29:30.485Z,80.07
2023-01-17T03:31:59.781Z,80.37
2023-01-17T03:34:31.070Z,80.06
2023-01-17T03:37:00.322Z,80.43
2023-01-17T03:39:29.927Z,80.04
2023-01-17T03:41:59.062Z,80.38
2023-01-17T03:44:28.419Z,80.31
2023-01-17T03:46:57.791Z,80.06
2023-01-17T03:49:27.162Z,80.37
2023-01-17T03:51:57.609Z,80.60
2023-01-17T03:54:27.037Z,80.63
2023-01-17T03:56:56.085Z,80.13
2023-01-17T03:59:25.821Z,80.22
2023-01-17T04:01:55.049Z,80.05
2023-01-17T04:04:24.779Z,80.13
2023-01-17T04:06:54.667Z,80.93
2023-01-17T04:09:25.447Z,79.97
2023-01-17T04:11:55.079Z,80.25
2023-01-17T04:14:24.508Z,80.37
2023-01-17T04:16:54.159Z,80.62
2023-01-17T04:19:23.422Z,80.63
2023-01-17T04:21:52.587Z,80.02
2023-01-17T04:24:21.918Z,80.63
2023-01-17T04:26:52.437Z,80.59
2023-01-17T04:29:22.129Z,80.55
2023-01-17T04:31:51.359Z,80.99
2023-01-17T04:34:20.921Z,80.73
2023-01-17T04:36:50.141Z,80.37
2023-01-17T04:39:19.630Z,80.74
2023-01-17T04:41:48.713Z,80.63
2023-01-17T04:44:19.517Z,80.63
2023-01-17T04:46:48.671Z,80.36
2023-01-17T04:49:18.133Z,80.89
2023-01-17T04:51:47.332Z,81.26
2023-01-17T04:54:16.708Z,80.68
2023-01-17T04:56:45.923Z,80.68
2023-01-17T04:59:15.286Z,80.88
2023-01-17T05:01:46.133Z,80.94
2023-01-17T05:04:17.249Z,80.77
2023-01-17T05:06:46.465Z,80.79
2023-01-17T05:09:15.840Z,80.46
2023-01-17T05:11:45.324Z,80.55
2023-01-17T05:14:14.792Z,80.78
2023-01-17T05:16:45.262Z,80.95
2023-01-17T05:19:14.851Z,80.92
2023-01-17T05:21:43.875Z,80.81
2023-01-17T05:24:13.344Z,80.93
2023-01-17T05:26:43.313Z,80.54
2023-01-17T05:29:13.122Z,80.33
2023-01-17T05:31:42.165Z,80.83
2023-01-17T05:34:13.128Z,80.52
2023-01-17T05:36:42.401Z,80.66
2023-01-17T05:39:11.883Z,80.83
2023-01-17T05:41:41.054Z,80.81
2023-01-17T05:44:10.428Z,80.79
2023-01-17T05:46:39.926Z,80.73
2023-01-17T05:49:09.362Z,80.74
2023-01-17T05:51:39.959Z,80.60
2023-01-17T05:54:09.722Z,80.62
2023-01-17T05:56:38.920Z,80.66
2023-01-17T05:59:08.260Z,80.91
2023-01-17T06:01:37.967Z,81.15
2023-01-17T06:04:07.431Z,81.15
2023-01-17T06:06:39.723Z,80.93
2023-01-17T06:09:09.313Z,80.64
2023-01-17T06:11:38.721Z,80.43
2023-01-17T06:14:09.733Z,80.39
2023-01-17T06:16:38.924Z,80.23
2023-01-17T06:19:09.520Z,80.70
2023-01-17T06:21:40.082Z,80.73
2023-01-17T06:24:09.588Z,80.66
2023-01-17T06:26:38.660Z,80.51
2023-01-17T06:29:08.073Z,80.72
2023-01-17T06:31:37.258Z,80.58
2023-01-17T06:34:07.104Z,80.38
2023-01-17T06:36:36.203Z,80.59
2023-01-17T06:39:07.127Z,80.63
2023-01-17T06:41:36.226Z,80.37
2023-01-17T06:44:07.521Z,80.67
2023-01-17T06:46:36.852Z,80.69
2023-01-17T06:49:06.252Z,80.38
2023-01-17T06:51:35.384Z,80.19
2023-01-17T06:54:06.198Z,80.23
2023-01-17T06:56:36.115Z,80.24
2023-01-17T06:59:05.988Z,80.12
2023-01-17T07:01:35.740Z,80.31
2023-01-17T07:04:06.129Z,80.32
2023-01-17T07:06:37.692Z,80.35
2023-01-17T07:09:08.689Z,80.46
2023-01-17T07:11:37.852Z,80.41
2023-01-17T07:14:12.634Z,80.24
2023-01-17T07:16:45.310Z,80.25
2023-01-17T07:19:15.333Z,80.62
2023-01-17T07:21:44.478Z,80.36
2023-01-17T07:24:15.429Z,80.36
2023-01-17T07:26:44.847Z,80.41
2023-01-17T07:29:14.195Z,80.33
2023-01-17T07:31:43.431Z,80.31
2023-01-17T07:34:12.916Z,80.28
2023-01-17T07:36:42.095Z,80.05
2023-01-17T07:39:11.989Z,80.17
2023-01-17T07:41:43.310Z,80.16
2023-01-17T07:44:15.288Z,80.11
2023-01-17T07:46:44.522Z,80.11
2023-01-17T07:49:14.619Z,80.77
2023-01-17T07:51:43.951Z,80.33
2023-01-17T07:54:13.840Z,80.10
2023-01-17T07:56:47.108Z,80.21
2023-01-17T07:59:16.920Z,80.40
2023-01-17T08:01:46.316Z,80.44
2023-01-17T08:04:15.773Z,80.54
2023-01-17T08:06:47.663Z,80.65
2023-01-17T08:09:17.202Z,80.72
2023-01-17T08:11:47.793Z,80.52
2023-01-17T08:14:18.177Z,80.70
2023-01-17T08:16:47.263Z,80.55
2023-01-17T08:19:17.393Z,80.54
2023-01-17T08:21:46.527Z,80.59
2023-01-17T08:24:16.758Z,80.40
2023-01-17T08:26:47.043Z,80.49
2023-01-17T08:29:16.486Z,80.67
2023-01-17T08:31:45.743Z,80.17
2023-01-17T08:34:15.266Z,80.30
2023-01-17T08:36:45.483Z,80.54
2023-01-17T08:39:15.232Z,80.62
2023-01-17T08:41:44.413Z,80.57
2023-01-17T08:44:15.861Z,80.56
2023-01-17T08:46:45.530Z,80.37
2023-01-17T08:49:14.911Z,80.41
2023-01-17T08:51:44.080Z,80.71
2023-01-17T08:54:15.295Z,80.59
2023-01-17T08:56:44.622Z,80.32
2023-01-17T08:59:15.796Z,80.26
2023-01-17T09:01:46.072Z,80.25
2023-01-17T09:04:16.642Z,80.17
2023-01-17T09:06:48.361Z,80.06
2023-01-17T09:09:18.518Z,80.43
2023-01-17T09:11:47.650Z,80.52
2023-01-17T09:14:18.917Z,80.11
2023-01-17T09:16:48.561Z,80.19
2023-01-17T09:19:17.823Z,80.14
2023-01-17T09:21:46.974Z,79.94
2023-01-17T09:24:16.563Z,80.00
2023-01-17T09:26:45.785Z,80.27
2023-01-17T09:29:18.803Z,80.10
2023-01-17T09:31:48.795Z,80.33
2023-01-17T09:34:18.705Z,80.03
2023-01-17T09:36:47.908Z,80.11
2023-01-17T09:39:17.436Z,80.17
2023-01-17T09:41:53.594Z,79.96
2023-01-17T09:44:35.022Z,79.85
2023-01-17T09:47:14.095Z,79.78
2023-01-17T09:49:45.764Z,79.77
2023-01-17T09:52:18.874Z,79.97
2023-01-17T09:54:50.404Z,79.98
2023-01-17T09:57:43.645Z,79.64
2023-01-17T10:00:31.786Z,79.73
2023-01-17T10:03:32.280Z,79.76
2023-01-17T10:06:37.215Z,79.62
2023-01-17T10:09:28.847Z,79.46
2023-01-17T10:12:14.807Z,79.30
2023-01-17T10:15:08.675Z,79.53
2023-01-17T10:17:53.775Z,79.43
2023-01-17T10:20:47.752Z,79.66
2023-01-17T10:23:43.399Z,79.30
2023-01-17T10:26:17.365Z,79.55
2023-01-17T10:28:51.235Z,79.63
2023-01-17T10:31:24.084Z,79.32
2023-01-17T10:33:57.089Z,79.22
2023-01-17T10:36:28.992Z,79.38
2023-01-17T10:39:01.968Z,79.30
2023-01-17T10:41:34.378Z,79.04
2023-01-17T10:44:13.268Z,79.04
2023-01-17T10:46:48.546Z,79.22
2023-01-17T10:49:22.160Z,79.28
2023-01-17T10:52:02.047Z,79.28
2023-01-17T10:54:49.556Z,78.67
2023-01-17T10:57:22.985Z,78.87
2023-01-17T10:59:53.368Z,78.91
2023-01-17T11:02:27.217Z,79.08
2023-01-17T11:05:03.516Z,79.25
2023-01-17T11:07:33.723Z,79.31
2023-01-17T11:10:03.050Z,79.10
2023-01-17T11:12:45.172Z,79.05
2023-01-17T11:15:25.992Z,78.86
2023-01-17T11:18:03.941Z,79.06
2023-01-17T11:20:38.936Z,78.77
2023-01-17T11:23:16.027Z,79.26
2023-01-17T11:25:53.392Z,79.33
2023-01-17T11:28:26.751Z,79.18
2023-01-17T11:30:58.453Z,79.24
2023-01-17T11:33:45.233Z,78.82
2023-01-17T11:36:21.289Z,78.61
2023-01-17T11:38:58.227Z,78.44
2023-01-17T11:41:29.331Z,78.56
2023-01-17T11:44:00.474Z,78.56
2023-01-17T11:46:30.769Z,78.93
2023-01-17T11:49:01.626Z,78.65
2023-01-17T11:51:34.748Z,78.69
2023-01-17T11:54:18.138Z,78.53
2023-01-17T11:56:47.693Z,78.53
2023-01-17T11:59:31.751Z,78.69
2023-01-17T12:02:31.852Z,78.43
2023-01-17T12:05:17.375Z,78.47
2023-01-17T12:07:58.539Z,78.49
2023-01-17T12:10:33.896Z,78.53
2023-01-17T12:13:29.196Z,78.07
2023-01-17T12:16:32.870Z,78.15
2023-01-17T12:19:26.482Z,78.03
2023-01-17T12:22:03.866Z,77.86
2023-01-17T12:24:59.508Z,78.23
2023-01-17T12:27:35.837Z,77.93
2023-01-17T12:30:17.189Z,77.96
2023-01-17T12:33:15.725Z,77.66
2023-01-17T12:35:53.065Z,77.48
2023-01-17T12:38:32.828Z,77.86
2023-01-17T12:41:11.465Z,77.94
2023-01-17T12:43:43.051Z,78.29
2023-01-17T12:46:21.380Z,78.03
2023-01-17T12:48:55.354Z,77.95
2023-01-17T12:51:30.410Z,77.74
2023-01-17T12:54:04.579Z,77.80
2023-01-17T12:56:40.801Z,77.76
2023-01-17T12:59:18.267Z,78.05
2023-01-17T13:01:58.059Z,77.90
2023-01-17T13:04:30.764Z,77.95
2023-01-17T13:07:13.048Z,77.75
2023-01-17T13:09:47.287Z,77.30
2023-01-17T13:12:22.085Z,77.70
2023-01-17T13:14:51.365Z,77.40
2023-01-17T13:17:35.438Z,77.84
2023-01-17T13:20:15.564Z,77.73
2023-01-17T13:22:46.839Z,77.49
2023-01-17T13:25:35.086Z,77.22
2023-01-17T13:28:18.902Z,77.84
2023-01-17T13:31:15.484Z,77.36
2023-01-17T13:34:02.101Z,77.53
2023-01-17T13:36:46.431Z,77.41
2023-01-17T13:39:44.076Z,77.50
2023-01-17T13:42:23.846Z,77.68
2023-01-17T13:44:55.299Z,77.75
2023-01-17T13:47:42.500Z,77.77
2023-01-17T13:50:48.649Z,77.60
2023-01-17T13:53:55.042Z,77.57
2023-01-17T13:56:35.894Z,78.01
2023-01-17T13:59:30.707Z,77.88
2023-01-17T14:02:01.689Z,77.41
2023-01-17T14:05:08.203Z,77.39
2023-01-17T14:07:48.029Z,77.42
2023-01-17T14:10:33.689Z,77.20
2023-01-17T14:13:04.338Z,77.23
2023-01-17T14:15:35.947Z,77.66
2023-01-17T14:18:27.795Z,77.23
2023-01-17T14:21:13.742Z,76.92
2023-01-17T14:24:03.997Z,76.80
2023-01-17T14:26:43.968Z,76.96
2023-01-17T14:29:52.246Z,77.53
2023-01-17T14:32:23.910Z,77.55
2023-01-17T14:34:57.192Z,77.45
2023-01-17T14:37:45.196Z,77.43
2023-01-17T14:40:20.729Z,77.56
2023-01-17T14:42:55.519Z,77.20
2023-01-17T14:45:29.722Z,77.23
2023-01-17T14:48:03.496Z,77.60
2023-01-17T14:50:38.553Z,77.25
2023-01-17T14:53:17.634Z,77.00
2023-01-17T14:55:56.789Z,76.91
2023-01-17T14:58:29.198Z,76.74
2023-01-17T15:01:04.356Z,76.96
2023-01-17T15:03:42.857Z,76.92
2023-01-17T15:06:17.975Z,76.68
2023-01-17T15:08:47.900Z,76.65
2023-01-17T15:11:23.878Z,76.70
2023-01-17T15:13:58.039Z,76.32
2023-01-17T15:16:30.920Z,76.72
2023-01-17T15:19:01.139Z,76.89
2023-01-17T15:21:36.939Z,77.21
2023-01-17T15:24:09.312Z,76.81
2023-01-17T15:26:43.430Z,76.56
2023-01-17T15:29:18.722Z,76.82
2023-01-17T15:31:51.718Z,76.66
2023-01-17T15:34:29.487Z,76.68
2023-01-17T15:37:02.522Z,76.61
2023-01-17T15:39:35.141Z,76.68
2023-01-17T15:42:08.983Z,76.59
2023-01-17T15:44:49.369Z,76.57
2023-01-17T15:47:33.127Z,76.81
2023-01-17T15:50:03.834Z,76.93
2023-01-17T15:52:50.381Z,77.12
2023-01-17T15:55:27.560Z,76.92
2023-01-17T15:57:57.288Z,76.85
2023-01-17T16:00:32.666Z,77.09
2023-01-17T16:03:02.361Z,77.27
2023-01-17T16:05:43.568Z,77.43
2023-01-17T16:08:32.800Z,77.48
2023-01-17T16:11:05.525Z,77.40
2023-01-17T16:13:38.725Z,77.36
2023-01-17T16:16:20.901Z,77.50
2023-01-17T16:18:53.820Z,77.42
2023-01-17T16:21:26.192Z,77.37
2023-01-17T16:23:57.614Z,77.51
2023-01-17T16:26:29.077Z,77.37
2023-01-17T16:29:00.067Z,77.46
2023-01-17T16:31:29.300Z,77.21
2023-01-17T16:33:59.346Z,77.00
2023-01-17T16:36:28.339Z,77.14
2023-01-17T16:38:59.115Z,77.08
2023-01-17T16:41:28.606Z,76.91
2023-01-17T16:44:03.477Z,77.02
2023-01-17T16:46:33.426Z,76.69
2023-01-17T16:49:03.227Z,76.64
2023-01-17T16:51:32.763Z,76.77
2023-01-17T16:54:03.570Z,76.78
2023-01-17T16:56:32.831Z,76.63
2023-01-17T16:59:02.327Z,76.93
2023-01-17T17:01:31.477Z,77.08
2023-01-17T17:04:01.149Z,76.93
2023-01-17T17:06:32.217Z,77.08
2023-01-17T17:09:03.175Z,77.41
2023-01-17T17:11:32.706Z,77.47
2023-01-17T17:14:03.061Z,77.39
2023-01-17T17:16:32.949Z,77.17
2023-01-17T17:19:04.887Z,77.39
2023-01-17T17:21:35.369Z,77.39
2023-01-17T17:24:06.823Z,77.50
2023-01-17T17:26:38.128Z,77.38
2023-01-17T17:29:10.512Z,77.58
2023-01-17T17:31:41.151Z,77.23
2023-01-17T17:34:13.520Z,76.76
2023-01-17T17:36:43.569Z,76.74
2023-01-17T17:39:15.880Z,77.01
2023-01-17T17:41:46.693Z,77.19
2023-01-17T17:44:16.496Z,77.23
2023-01-17T17:46:49.663Z,77.24
2023-01-17T17:49:20.397Z,77.38
2023-01-17T17:51:49.622Z,77.36
2023-01-17T17:54:22.092Z,77.54
2023-01-17T17:56:51.781Z,77.00
2023-01-17T17:59:21.218Z,77.02
2023-01-17T18:01:50.663Z,76.85
2023-01-17T18:04:20.254Z,76.73
2023-01-17T18:06:49.371Z,76.92
2023-01-17T18:09:20.412Z,76.76
2023-01-17T18:11:49.645Z,76.27
2023-01-17T18:14:21.102Z,76.76
2023-01-17T18:16:50.870Z,76.70
2023-01-17T18:19:23.307Z,76.60
2023-01-17T18:21:53.933Z,76.65
2023-01-17T18:24:27.671Z,76.45
2023-01-17T18:26:58.193Z,76.64
2023-01-17T18:29:29.062Z,76.65
2023-01-17T18:31:58.686Z,76.76
2023-01-17T18:34:30.050Z,76.65
2023-01-17T18:36:59.916Z,76.49
2023-01-17T18:39:32.233Z,76.43
2023-01-17T18:42:01.740Z,76.38
2023-01-17T18:44:31.331Z,76.40
2023-01-17T18:47:04.552Z,76.25
2023-01-17T18:49:35.587Z,76.26
2023-01-17T18:52:07.990Z,76.23
2023-01-17T18:54:38.958Z,76.05
2023-01-17T18:57:08.086Z,76.12
2023-01-17T18:59:37.573Z,75.85
2023-01-17T19:02:06.942Z,75.97
2023-01-17T19:04:38.243Z,75.82
2023-01-17T19:07:07.535Z,75.76
2023-01-17T19:09:38.616Z,75.76
2023-01-17T19:12:08.160Z,75.73
2023-01-17T19:14:37.565Z,75.89
2023-01-17T19:17:06.766Z,76.30
2023-01-17T19:19:36.195Z,76.31
2023-01-17T19:22:05.257Z,76.33
2023-01-17T19:24:36.047Z,76.32
2023-01-17T19:27:07.200Z,76.08
2023-01-17T19:29:37.077Z,76.18
2023-01-17T19:32:07.447Z,76.48
2023-01-17T19:34:37.342Z,76.71
2023-01-17T19:37:07.389Z,76.58
2023-01-17T19:39:36.738Z,76.74
2023-01-17T19:42:10.029Z,76.74
2023-01-17T19:44:39.486Z,76.87
2023-01-17T19:47:11.221Z,76.93
2023-01-17T19:49:42.437Z,76.88
2023-01-17T19:52:14.485Z,76.93
2023-01-17T19:54:43.941Z,76.82
2023-01-17T19:57:14.396Z,76.97
2023-01-17T19:59:44.091Z,77.35
2023-01-17T20:02:13.435Z,77.65
2023-01-17T20:04:43.175Z,77.39
2023-01-17T20:07:12.361Z,77.56
2023-01-17T20:09:41.828Z,77.36
2023-01-17T20:12:11.941Z,77.40
2023-01-17T20:14:42.677Z,77.68
2023-01-17T20:17:12.227Z,77.44
2023-01-17T20:19:41.599Z,77.56
2023-01-17T20:22:10.865Z,77.62
2023-01-17T20:24:40.467Z,77.68
2023-01-17T20:27:09.608Z,77.44
2023-01-17T20:29:40.904Z,77.34
2023-01-17T20:32:11.679Z,77.35
2023-01-17T20:34:41.491Z,77.51
2023-01-17T20:37:10.697Z,77.46
2023-01-17T20:39:43.598Z,77.12
2023-01-17T20:42:12.894Z,77.10
2023-01-17T20:44:42.576Z,77.47
2023-01-17T20:47:14.052Z,77.27
2023-01-17T20:49:43.788Z,77.26
2023-01-17T20:52:15.353Z,77.21
2023-01-17T20:54:48.751Z,77.61
2023-01-17T20:57:18.264Z,77.59
2023-01-17T20:59:48.562Z,77.49
2023-01-17T21:02:19.457Z,77.41
2023-01-17T21:04:50.054Z,77.21
2023-01-17T21:07:20.029Z,77.23
2023-01-17T21:09:49.786Z,77.29
2023-01-17T21:12:19.043Z,77.21
2023-01-17T21:14:48.459Z,77.20
2023-01-17T21:17:19.281Z,77.40
2023-01-17T21:19:51.138Z,77.58
2023-01-17T21:22:21.078Z,77.66
2023-01-17T21:24:51.274Z,77.47
2023-01-17T21:27:21.672Z,77.51
2023-01-17T21:29:53.016Z,77.63
2023-01-17T21:32:23.637Z,77.58
2023-01-17T21:34:55.351Z,77.70
2023-01-17T21:37:26.102Z,77.67
2023-01-17T21:39:56.999Z,77.29
2023-01-17T21:42:26.374Z,77.20
2023-01-17T21:44:56.177Z,77.23
2023-01-17T21:47:26.945Z,77.41
2023-01-17T21:49:56.634Z,77.33
2023-01-17T21:52:26.217Z,77.42
2023-01-17T21:55:12.835Z,77.51
2023-01-17T21:57:59.754Z,77.29
2023-01-17T22:00:29.421Z,76.96
2023-01-17T22:03:00.003Z,76.90
2023-01-17T22:05:29.725Z,76.55
2023-01-17T22:08:15.297Z,76.76
2023-01-17T22:10:47.720Z,76.78
2023-01-17T22:13:18.496Z,76.77
2023-01-17T22:15:58.511Z,76.40
2023-01-17T22:18:30.833Z,76.24
2023-01-17T22:21:04.927Z,76.26
2023-01-17T22:23:34.465Z,76.21
2023-01-17T22:26:05.516Z,76.10
2023-01-17T22:28:35.539Z,75.82
2023-01-17T22:31:10.805Z,75.91
2023-01-17T22:33:43.628Z,75.66
2023-01-17T22:36:14.984Z,75.69
2023-01-17T22:38:45.428Z,75.67
2023-01-17T22:41:17.056Z,75.50
2023-01-17T22:43:47.876Z,75.30
2023-01-17T22:46:20.644Z,75.19
2023-01-17T22:48:52.212Z,75.11
2023-01-17T22:51:23.891Z,75.12
2023-01-17T22:53:55.310Z,75.02
2023-01-17T22:56:27.635Z,75.12
2023-01-17T22:58:57.151Z,74.92
2023-01-17T23:01:28.873Z,74.84
2023-01-17T23:04:01.377Z,74.90
2023-01-17T23:06:33.276Z,74.72
2023-01-17T23:09:04.863Z,74.80
2023-01-17T23:11:42.753Z,74.66
2023-01-17T23:14:15.790Z,74.60
2023-01-17T23:17:04.464Z,74.71
2023-01-17T23:19:37.295Z,74.53
2023-01-17T23:22:20.237Z,74.75
2023-01-17T23:24:52.591Z,74.96
2023-01-17T23:27:41.741Z,74.83
2023-01-17T23:30:13.625Z,74.73
2023-01-17T23:32:47.124Z,74.66
2023-01-17T23:35:18.965Z,74.74
2023-01-17T23:38:06.564Z,74.72
2023-01-17T23:40:37.752Z,74.53
2023-01-17T23:43:25.364Z,74.79
2023-01-17T23:45:55.612Z,74.45
2023-01-17T23:48:27.322Z,74.71
2023-01-17T23:51:02.363Z,74.71
2023-01-17T23:53:31.856Z,74.55
2023-01-17T23:56:07.723Z,74.80
2023-01-17T23:58:37.084Z,74.72
